sensor_id;sensor_type;location;lat;lon;timestamp;temperature;humidity
71208;DHT22;58938;49.868;8.646;2022-10-15T00:00:43;17.60;81.20
71208;DHT22;58938;49.868;8.646;2022-10-15T00:03:09;17.60;81.20
71208;DHT22;58938;49.868;8.646;2022-10-15T00:05:38;17.60;81.30
71208;DHT22;58938;49.868;8.646;2022-10-15T00:08:05;17.60;81.20
71208;DHT22;58938;49.868;8.646;2022-10-15T00:10:31;17.60;81.30
71208;DHT22;58938;49.868;8.646;2022-10-15T00:12:57;17.60;81.30
71208;DHT22;58938;49.868;8.646;2022-10-15T00:15:23;17.60;81.30
71208;DHT22;58938;49.868;8.646;2022-10-15T00:17:48;17.60;81.40
71208;DHT22;58938;49.868;8.646;2022-10-15T00:20:14;17.60;81.30
71208;DHT22;58938;49.868;8.646;2022-10-15T00:22:40;17.60;81.40
71208;DHT22;58938;49.868;8.646;2022-10-15T00:25:06;17.60;81.40
71208;DHT22;58938;49.868;8.646;2022-10-15T00:27:33;17.60;81.40
71208;DHT22;58938;49.868;8.646;2022-10-15T00:29:58;17.60;81.50
71208;DHT22;58938;49.868;8.646;2022-10-15T00:32:25;17.60;81.50
71208;DHT22;58938;49.868;8.646;2022-10-15T00:34:50;17.60;81.50
71208;DHT22;58938;49.868;8.646;2022-10-15T00:37:16;17.60;81.50
71208;DHT22;58938;49.868;8.646;2022-10-15T00:39:42;17.70;81.50
71208;DHT22;58938;49.868;8.646;2022-10-15T00:42:09;17.70;81.50
71208;DHT22;58938;49.868;8.646;2022-10-15T00:47:43;17.70;81.40
71208;DHT22;58938;49.868;8.646;2022-10-15T00:50:14;17.70;81.50
71208;DHT22;58938;49.868;8.646;2022-10-15T00:58:15;17.70;81.50
71208;DHT22;58938;49.868;8.646;2022-10-15T01:00:42;17.60;81.60
71208;DHT22;58938;49.868;8.646;2022-10-15T01:03:08;17.60;81.50
71208;DHT22;58938;49.868;8.646;2022-10-15T01:05:34;17.70;81.50
71208;DHT22;58938;49.868;8.646;2022-10-15T01:08:01;17.70;81.60
71208;DHT22;58938;49.868;8.646;2022-10-15T01:10:35;17.70;81.60
71208;DHT22;58938;49.868;8.646;2022-10-15T01:13:14;17.70;81.60
71208;DHT22;58938;49.868;8.646;2022-10-15T01:15:53;17.70;81.60
71208;DHT22;58938;49.868;8.646;2022-10-15T01:18:25;17.70;81.60
71208;DHT22;58938;49.868;8.646;2022-10-15T01:29:45;17.70;81.60
71208;DHT22;58938;49.868;8.646;2022-10-15T01:32:25;17.70;81.70
71208;DHT22;58938;49.868;8.646;2022-10-15T01:40:22;17.70;81.70
71208;DHT22;58938;49.868;8.646;2022-10-15T01:42:57;17.80;81.70
71208;DHT22;58938;49.868;8.646;2022-10-15T01:45:31;17.80;81.70
71208;DHT22;58938;49.868;8.646;2022-10-15T01:48:10;17.80;81.60
71208;DHT22;58938;49.868;8.646;2022-10-15T01:50:41;17.80;81.70
71208;DHT22;58938;49.868;8.646;2022-10-15T01:53:10;17.70;81.70
71208;DHT22;58938;49.868;8.646;2022-10-15T01:55:36;17.70;81.70
71208;DHT22;58938;49.868;8.646;2022-10-15T01:58:06;17.70;81.70
71208;DHT22;58938;49.868;8.646;2022-10-15T02:00:32;17.80;81.70
71208;DHT22;58938;49.868;8.646;2022-10-15T02:03:00;17.80;81.80
71208;DHT22;58938;49.868;8.646;2022-10-15T02:05:34;17.80;81.80
71208;DHT22;58938;49.868;8.646;2022-10-15T02:08:27;17.80;81.80
71208;DHT22;58938;49.868;8.646;2022-10-15T02:11:15;17.80;81.70
71208;DHT22;58938;49.868;8.646;2022-10-15T02:19:29;17.80;81.80
71208;DHT22;58938;49.868;8.646;2022-10-15T02:22:14;17.80;81.80
71208;DHT22;58938;49.868;8.646;2022-10-15T02:25:06;17.80;81.80
71208;DHT22;58938;49.868;8.646;2022-10-15T02:27:33;17.70;81.80
71208;DHT22;58938;49.868;8.646;2022-10-15T02:30:02;17.70;81.80
71208;DHT22;58938;49.868;8.646;2022-10-15T02:32:31;17.70;81.80
71208;DHT22;58938;49.868;8.646;2022-10-15T02:34:57;17.70;81.80
71208;DHT22;58938;49.868;8.646;2022-10-15T02:37:25;17.80;81.80
71208;DHT22;58938;49.868;8.646;2022-10-15T02:39:52;17.80;81.80
71208;DHT22;58938;49.868;8.646;2022-10-15T02:42:18;17.80;81.80
71208;DHT22;58938;49.868;8.646;2022-10-15T02:44:44;17.80;81.80
71208;DHT22;58938;49.868;8.646;2022-10-15T02:47:10;17.80;81.80
71208;DHT22;58938;49.868;8.646;2022-10-15T02:49:36;17.80;81.90
71208;DHT22;58938;49.868;8.646;2022-10-15T02:52:03;17.80;81.80
71208;DHT22;58938;49.868;8.646;2022-10-15T02:54:29;17.80;81.80
71208;DHT22;58938;49.868;8.646;2022-10-15T02:56:54;17.70;81.80
71208;DHT22;58938;49.868;8.646;2022-10-15T02:59:20;17.70;81.90
71208;DHT22;58938;49.868;8.646;2022-10-15T03:01:46;17.70;81.90
71208;DHT22;58938;49.868;8.646;2022-10-15T03:04:12;17.70;81.90
71208;DHT22;58938;49.868;8.646;2022-10-15T03:06:37;17.70;82.00
71208;DHT22;58938;49.868;8.646;2022-10-15T03:09:03;17.70;81.90
71208;DHT22;58938;49.868;8.646;2022-10-15T03:11:29;17.70;82.10
71208;DHT22;58938;49.868;8.646;2022-10-15T03:13:54;17.80;82.00
71208;DHT22;58938;49.868;8.646;2022-10-15T03:16:20;17.80;82.00
71208;DHT22;58938;49.868;8.646;2022-10-15T03:18:46;17.70;82.00
71208;DHT22;58938;49.868;8.646;2022-10-15T03:21:11;17.80;82.00
71208;DHT22;58938;49.868;8.646;2022-10-15T03:23:37;17.80;82.00
71208;DHT22;58938;49.868;8.646;2022-10-15T03:26:02;17.80;82.00
71208;DHT22;58938;49.868;8.646;2022-10-15T03:28:28;17.80;82.10
71208;DHT22;58938;49.868;8.646;2022-10-15T03:30:53;17.80;82.10
71208;DHT22;58938;49.868;8.646;2022-10-15T03:33:19;17.80;82.10
71208;DHT22;58938;49.868;8.646;2022-10-15T03:35:45;17.80;82.10
71208;DHT22;58938;49.868;8.646;2022-10-15T03:38:10;17.80;82.10
71208;DHT22;58938;49.868;8.646;2022-10-15T03:40:36;17.70;82.00
71208;DHT22;58938;49.868;8.646;2022-10-15T03:43:01;17.70;82.10
71208;DHT22;58938;49.868;8.646;2022-10-15T03:45:27;17.80;82.20
71208;DHT22;58938;49.868;8.646;2022-10-15T03:47:53;17.80;82.20
71208;DHT22;58938;49.868;8.646;2022-10-15T03:50:19;17.80;82.10
71208;DHT22;58938;49.868;8.646;2022-10-15T03:52:45;17.80;82.20
71208;DHT22;58938;49.868;8.646;2022-10-15T03:55:11;17.80;82.10
71208;DHT22;58938;49.868;8.646;2022-10-15T03:57:38;17.70;82.10
71208;DHT22;58938;49.868;8.646;2022-10-15T04:00:05;17.80;82.20
71208;DHT22;58938;49.868;8.646;2022-10-15T04:02:31;17.80;82.10
71208;DHT22;58938;49.868;8.646;2022-10-15T04:04:56;17.80;82.20
71208;DHT22;58938;49.868;8.646;2022-10-15T04:07:22;17.80;82.20
71208;DHT22;58938;49.868;8.646;2022-10-15T04:09:48;17.80;82.20
71208;DHT22;58938;49.868;8.646;2022-10-15T04:12:13;17.80;82.20
71208;DHT22;58938;49.868;8.646;2022-10-15T04:14:40;17.80;82.30
71208;DHT22;58938;49.868;8.646;2022-10-15T04:17:06;17.80;82.20
71208;DHT22;58938;49.868;8.646;2022-10-15T04:19:32;17.80;82.20
71208;DHT22;58938;49.868;8.646;2022-10-15T04:21:58;17.80;82.30
71208;DHT22;58938;49.868;8.646;2022-10-15T04:24:23;17.80;82.30
71208;DHT22;58938;49.868;8.646;2022-10-15T04:26:49;17.80;82.30
71208;DHT22;58938;49.868;8.646;2022-10-15T04:29:15;17.80;82.30
71208;DHT22;58938;49.868;8.646;2022-10-15T04:31:41;17.80;82.30
71208;DHT22;58938;49.868;8.646;2022-10-15T04:34:07;17.70;82.30
71208;DHT22;58938;49.868;8.646;2022-10-15T04:36:33;17.80;82.30
71208;DHT22;58938;49.868;8.646;2022-10-15T04:38:59;17.80;82.30
71208;DHT22;58938;49.868;8.646;2022-10-15T04:41:25;17.80;82.30
71208;DHT22;58938;49.868;8.646;2022-10-15T04:43:51;17.80;82.30
71208;DHT22;58938;49.868;8.646;2022-10-15T04:46:17;17.80;82.30
71208;DHT22;58938;49.868;8.646;2022-10-15T04:48:44;17.80;82.30
71208;DHT22;58938;49.868;8.646;2022-10-15T04:51:15;17.80;82.40
71208;DHT22;58938;49.868;8.646;2022-10-15T04:53:42;17.80;82.40
71208;DHT22;58938;49.868;8.646;2022-10-15T04:56:11;17.80;82.40
71208;DHT22;58938;49.868;8.646;2022-10-15T04:58:38;17.80;82.30
71208;DHT22;58938;49.868;8.646;2022-10-15T05:01:06;17.80;82.30
71208;DHT22;58938;49.868;8.646;2022-10-15T05:03:32;17.80;82.30
71208;DHT22;58938;49.868;8.646;2022-10-15T05:06:00;17.70;82.30
71208;DHT22;58938;49.868;8.646;2022-10-15T05:08:28;17.70;82.40
71208;DHT22;58938;49.868;8.646;2022-10-15T05:10:54;17.70;82.40
71208;DHT22;58938;49.868;8.646;2022-10-15T05:13:19;17.70;82.40
71208;DHT22;58938;49.868;8.646;2022-10-15T05:15:45;17.70;82.40
71208;DHT22;58938;49.868;8.646;2022-10-15T05:18:10;17.70;82.50
71208;DHT22;58938;49.868;8.646;2022-10-15T05:20:36;17.70;82.40
71208;DHT22;58938;49.868;8.646;2022-10-15T05:23:02;17.70;82.50
71208;DHT22;58938;49.868;8.646;2022-10-15T05:25:28;17.70;82.40
71208;DHT22;58938;49.868;8.646;2022-10-15T05:27:54;17.80;82.40
71208;DHT22;58938;49.868;8.646;2022-10-15T05:30:20;17.80;82.40
71208;DHT22;58938;49.868;8.646;2022-10-15T05:32:45;17.80;82.40
71208;DHT22;58938;49.868;8.646;2022-10-15T05:35:15;17.80;82.40
71208;DHT22;58938;49.868;8.646;2022-10-15T05:37:40;17.80;82.40
71208;DHT22;58938;49.868;8.646;2022-10-15T05:40:06;17.80;82.40
71208;DHT22;58938;49.868;8.646;2022-10-15T05:42:32;17.80;82.40
71208;DHT22;58938;49.868;8.646;2022-10-15T05:45:00;17.80;82.30
71208;DHT22;58938;49.868;8.646;2022-10-15T05:47:26;17.80;82.20
71208;DHT22;58938;49.868;8.646;2022-10-15T05:49:51;17.80;82.30
71208;DHT22;58938;49.868;8.646;2022-10-15T05:52:18;17.80;82.30
71208;DHT22;58938;49.868;8.646;2022-10-15T05:54:43;17.80;82.30
71208;DHT22;58938;49.868;8.646;2022-10-15T05:57:09;17.80;82.30
71208;DHT22;58938;49.868;8.646;2022-10-15T05:59:34;17.80;82.20
71208;DHT22;58938;49.868;8.646;2022-10-15T06:02:00;17.80;82.30
71208;DHT22;58938;49.868;8.646;2022-10-15T06:04:26;17.80;82.30
71208;DHT22;58938;49.868;8.646;2022-10-15T06:06:51;17.80;82.30
71208;DHT22;58938;49.868;8.646;2022-10-15T06:09:17;17.80;82.30
71208;DHT22;58938;49.868;8.646;2022-10-15T06:11:42;17.80;82.30
71208;DHT22;58938;49.868;8.646;2022-10-15T06:14:08;17.80;82.40
71208;DHT22;58938;49.868;8.646;2022-10-15T06:16:33;17.80;82.40
71208;DHT22;58938;49.868;8.646;2022-10-15T06:18:59;17.80;82.30
71208;DHT22;58938;49.868;8.646;2022-10-15T06:21:25;17.80;82.40
71208;DHT22;58938;49.868;8.646;2022-10-15T06:23:50;17.80;82.40
71208;DHT22;58938;49.868;8.646;2022-10-15T06:26:16;17.80;82.40
71208;DHT22;58938;49.868;8.646;2022-10-15T06:28:42;17.80;82.40
71208;DHT22;58938;49.868;8.646;2022-10-15T06:31:08;17.80;82.30
71208;DHT22;58938;49.868;8.646;2022-10-15T06:33:34;17.80;82.30
71208;DHT22;58938;49.868;8.646;2022-10-15T06:36:02;17.80;82.40
71208;DHT22;58938;49.868;8.646;2022-10-15T06:38:28;17.90;82.40
71208;DHT22;58938;49.868;8.646;2022-10-15T06:40:53;17.90;82.40
71208;DHT22;58938;49.868;8.646;2022-10-15T06:43:19;17.90;82.30
71208;DHT22;58938;49.868;8.646;2022-10-15T06:45:44;17.90;82.30
71208;DHT22;58938;49.868;8.646;2022-10-15T06:48:10;17.90;82.40
71208;DHT22;58938;49.868;8.646;2022-10-15T06:50:37;17.90;82.40
71208;DHT22;58938;49.868;8.646;2022-10-15T06:53:03;17.90;82.40
71208;DHT22;58938;49.868;8.646;2022-10-15T06:55:29;17.90;82.40
71208;DHT22;58938;49.868;8.646;2022-10-15T06:57:56;17.90;82.40
71208;DHT22;58938;49.868;8.646;2022-10-15T07:00:22;17.90;82.40
71208;DHT22;58938;49.868;8.646;2022-10-15T07:02:49;17.90;82.40
71208;DHT22;58938;49.868;8.646;2022-10-15T07:05:14;17.90;82.40
71208;DHT22;58938;49.868;8.646;2022-10-15T07:07:40;17.90;82.40
71208;DHT22;58938;49.868;8.646;2022-10-15T07:10:06;17.90;82.50
71208;DHT22;58938;49.868;8.646;2022-10-15T07:12:32;17.90;82.50
71208;DHT22;58938;49.868;8.646;2022-10-15T07:14:58;17.90;82.50
71208;DHT22;58938;49.868;8.646;2022-10-15T07:17:24;17.90;82.60
71208;DHT22;58938;49.868;8.646;2022-10-15T07:19:49;18.00;82.50
71208;DHT22;58938;49.868;8.646;2022-10-15T07:22:15;17.90;82.60
71208;DHT22;58938;49.868;8.646;2022-10-15T07:24:40;18.00;82.60
71208;DHT22;58938;49.868;8.646;2022-10-15T07:27:06;18.00;82.60
71208;DHT22;58938;49.868;8.646;2022-10-15T07:29:32;18.00;82.50
71208;DHT22;58938;49.868;8.646;2022-10-15T07:31:57;18.00;82.50
71208;DHT22;58938;49.868;8.646;2022-10-15T07:34:24;18.00;82.60
71208;DHT22;58938;49.868;8.646;2022-10-15T07:36:49;18.10;82.50
71208;DHT22;58938;49.868;8.646;2022-10-15T07:39:15;18.10;82.40
71208;DHT22;58938;49.868;8.646;2022-10-15T07:41:43;18.10;82.40
71208;DHT22;58938;49.868;8.646;2022-10-15T07:44:10;18.10;82.20
71208;DHT22;58938;49.868;8.646;2022-10-15T07:46:35;18.10;82.20
71208;DHT22;58938;49.868;8.646;2022-10-15T07:49:01;18.10;81.90
71208;DHT22;58938;49.868;8.646;2022-10-15T07:51:27;18.10;82.00
71208;DHT22;58938;49.868;8.646;2022-10-15T07:53:52;18.10;81.90
71208;DHT22;58938;49.868;8.646;2022-10-15T07:56:18;18.10;81.80
71208;DHT22;58938;49.868;8.646;2022-10-15T07:58:43;18.10;81.70
71208;DHT22;58938;49.868;8.646;2022-10-15T08:01:16;18.20;81.60
71208;DHT22;58938;49.868;8.646;2022-10-15T08:03:42;18.20;81.70
71208;DHT22;58938;49.868;8.646;2022-10-15T08:06:08;18.20;81.70
71208;DHT22;58938;49.868;8.646;2022-10-15T08:08:35;18.20;81.60
71208;DHT22;58938;49.868;8.646;2022-10-15T08:11:14;18.20;81.50
71208;DHT22;58938;49.868;8.646;2022-10-15T08:13:41;18.20;81.60
71208;DHT22;58938;49.868;8.646;2022-10-15T08:16:08;18.30;81.60
71208;DHT22;58938;49.868;8.646;2022-10-15T08:18:34;18.30;81.60
71208;DHT22;58938;49.868;8.646;2022-10-15T08:21:00;18.40;81.60
71208;DHT22;58938;49.868;8.646;2022-10-15T08:23:26;18.40;81.60
71208;DHT22;58938;49.868;8.646;2022-10-15T08:25:52;18.40;81.70
71208;DHT22;58938;49.868;8.646;2022-10-15T08:28:18;18.40;81.70
71208;DHT22;58938;49.868;8.646;2022-10-15T08:30:43;18.40;81.70
71208;DHT22;58938;49.868;8.646;2022-10-15T08:33:09;18.40;81.70
71208;DHT22;58938;49.868;8.646;2022-10-15T08:35:34;18.40;81.70
71208;DHT22;58938;49.868;8.646;2022-10-15T08:38:03;18.50;81.70
71208;DHT22;58938;49.868;8.646;2022-10-15T08:40:29;18.50;81.70
71208;DHT22;58938;49.868;8.646;2022-10-15T08:42:55;18.50;81.70
71208;DHT22;58938;49.868;8.646;2022-10-15T08:45:35;18.50;81.70
71208;DHT22;58938;49.868;8.646;2022-10-15T08:48:15;18.50;81.60
71208;DHT22;58938;49.868;8.646;2022-10-15T08:50:49;18.50;81.70
71208;DHT22;58938;49.868;8.646;2022-10-15T08:53:21;18.50;81.70
71208;DHT22;58938;49.868;8.646;2022-10-15T08:55:49;18.50;81.70
71208;DHT22;58938;49.868;8.646;2022-10-15T09:01:01;18.50;81.60
71208;DHT22;58938;49.868;8.646;2022-10-15T09:06:20;18.50;81.60
71208;DHT22;58938;49.868;8.646;2022-10-15T09:08:56;18.50;81.60
71208;DHT22;58938;49.868;8.646;2022-10-15T09:14:12;18.60;81.50
71208;DHT22;58938;49.868;8.646;2022-10-15T09:16:39;18.60;81.50
71208;DHT22;58938;49.868;8.646;2022-10-15T09:19:16;18.60;81.40
71208;DHT22;58938;49.868;8.646;2022-10-15T09:21:43;18.60;81.40
71208;DHT22;58938;49.868;8.646;2022-10-15T09:24:12;18.60;81.50
71208;DHT22;58938;49.868;8.646;2022-10-15T09:29:30;18.60;81.40
71208;DHT22;58938;49.868;8.646;2022-10-15T09:35:23;18.70;81.40
71208;DHT22;58938;49.868;8.646;2022-10-15T09:38:13;18.70;81.40
71208;DHT22;58938;49.868;8.646;2022-10-15T09:41:01;18.70;81.30
71208;DHT22;58938;49.868;8.646;2022-10-15T09:43:36;18.70;81.30
71208;DHT22;58938;49.868;8.646;2022-10-15T09:46:03;18.70;81.40
71208;DHT22;58938;49.868;8.646;2022-10-15T09:48:39;18.70;81.30
71208;DHT22;58938;49.868;8.646;2022-10-15T09:56:27;18.80;81.30
71208;DHT22;58938;49.868;8.646;2022-10-15T09:58:57;18.80;81.40
71208;DHT22;58938;49.868;8.646;2022-10-15T10:01:28;18.80;81.30
71208;DHT22;58938;49.868;8.646;2022-10-15T10:04:11;18.80;81.30
71208;DHT22;58938;49.868;8.646;2022-10-15T10:06:49;18.80;81.30
71208;DHT22;58938;49.868;8.646;2022-10-15T10:09:37;18.80;81.30
71208;DHT22;58938;49.868;8.646;2022-10-15T10:12:16;18.80;81.30
71208;DHT22;58938;49.868;8.646;2022-10-15T10:14:59;18.80;81.20
71208;DHT22;58938;49.868;8.646;2022-10-15T10:17:27;18.80;81.20
71208;DHT22;58938;49.868;8.646;2022-10-15T10:22:48;18.80;81.10
71208;DHT22;58938;49.868;8.646;2022-10-15T10:25:33;18.80;81.10
71208;DHT22;58938;49.868;8.646;2022-10-15T10:30:38;18.70;81.10
71208;DHT22;58938;49.868;8.646;2022-10-15T10:33:11;18.70;81.10
71208;DHT22;58938;49.868;8.646;2022-10-15T10:35:45;18.70;81.00
71208;DHT22;58938;49.868;8.646;2022-10-15T10:38:22;18.70;80.90
71208;DHT22;58938;49.868;8.646;2022-10-15T10:40:56;18.70;81.00
71208;DHT22;58938;49.868;8.646;2022-10-15T10:43:28;18.70;81.00
71208;DHT22;58938;49.868;8.646;2022-10-15T10:45:59;18.70;81.00
71208;DHT22;58938;49.868;8.646;2022-10-15T10:48:40;18.70;80.90
71208;DHT22;58938;49.868;8.646;2022-10-15T10:51:14;18.70;80.90
71208;DHT22;58938;49.868;8.646;2022-10-15T10:53:50;18.70;80.90
71208;DHT22;58938;49.868;8.646;2022-10-15T10:56:21;18.70;80.80
71208;DHT22;58938;49.868;8.646;2022-10-15T10:58:51;18.80;80.80
71208;DHT22;58938;49.868;8.646;2022-10-15T11:01:19;18.80;80.80
71208;DHT22;58938;49.868;8.646;2022-10-15T11:03:45;18.80;80.80
71208;DHT22;58938;49.868;8.646;2022-10-15T11:17:21;18.90;80.80
71208;DHT22;58938;49.868;8.646;2022-10-15T11:25:48;19.10;80.80
71208;DHT22;58938;49.868;8.646;2022-10-15T11:28:44;19.10;80.90
71208;DHT22;58938;49.868;8.646;2022-10-15T11:31:30;19.10;80.90
71208;DHT22;58938;49.868;8.646;2022-10-15T11:47:58;19.10;80.80
71208;DHT22;58938;49.868;8.646;2022-10-15T11:56:19;19.20;80.70
71208;DHT22;58938;49.868;8.646;2022-10-15T11:58:54;19.20;80.70
71208;DHT22;58938;49.868;8.646;2022-10-15T12:01:25;19.20;80.50
71208;DHT22;58938;49.868;8.646;2022-10-15T12:03:58;19.20;80.60
71208;DHT22;58938;49.868;8.646;2022-10-15T12:06:27;19.20;80.50
71208;DHT22;58938;49.868;8.646;2022-10-15T12:08:55;19.20;80.50
71208;DHT22;58938;49.868;8.646;2022-10-15T12:14:10;19.20;80.30
71208;DHT22;58938;49.868;8.646;2022-10-15T12:19:28;19.20;80.30
71208;DHT22;58938;49.868;8.646;2022-10-15T12:22:00;19.20;80.30
71208;DHT22;58938;49.868;8.646;2022-10-15T12:30:17;19.30;80.10
71208;DHT22;58938;49.868;8.646;2022-10-15T12:32:46;19.30;80.00
71208;DHT22;58938;49.868;8.646;2022-10-15T12:35:52;19.30;80.00
71208;DHT22;58938;49.868;8.646;2022-10-15T12:38:37;19.30;79.90
71208;DHT22;58938;49.868;8.646;2022-10-15T12:41:09;19.30;79.90
71208;DHT22;58938;49.868;8.646;2022-10-15T12:43:40;19.30;79.70
71208;DHT22;58938;49.868;8.646;2022-10-15T12:46:08;19.30;79.70
71208;DHT22;58938;49.868;8.646;2022-10-15T12:48:39;19.30;79.60
71208;DHT22;58938;49.868;8.646;2022-10-15T12:53:48;19.30;79.50
71208;DHT22;58938;49.868;8.646;2022-10-15T13:06:30;19.40;79.40
71208;DHT22;58938;49.868;8.646;2022-10-15T13:11:43;19.40;79.30
71208;DHT22;58938;49.868;8.646;2022-10-15T13:14:33;19.40;79.20
71208;DHT22;58938;49.868;8.646;2022-10-15T13:17:18;19.40;79.20
71208;DHT22;58938;49.868;8.646;2022-10-15T13:19:59;19.40;79.20
71208;DHT22;58938;49.868;8.646;2022-10-15T13:22:30;19.40;79.10
71208;DHT22;58938;49.868;8.646;2022-10-15T13:24:56;19.40;79.10
71208;DHT22;58938;49.868;8.646;2022-10-15T13:27:30;19.40;79.00
71208;DHT22;58938;49.868;8.646;2022-10-15T13:32:26;19.40;78.70
71208;DHT22;58938;49.868;8.646;2022-10-15T13:34:52;19.40;78.60
71208;DHT22;58938;49.868;8.646;2022-10-15T13:37:23;19.40;78.60
71208;DHT22;58938;49.868;8.646;2022-10-15T13:39:51;19.40;78.50
71208;DHT22;58938;49.868;8.646;2022-10-15T13:42:21;19.40;78.40
71208;DHT22;58938;49.868;8.646;2022-10-15T13:45:03;19.40;78.30
71208;DHT22;58938;49.868;8.646;2022-10-15T13:47:34;19.40;78.40
71208;DHT22;58938;49.868;8.646;2022-10-15T13:50:29;19.40;78.40
71208;DHT22;58938;49.868;8.646;2022-10-15T13:55:52;19.40;78.40
71208;DHT22;58938;49.868;8.646;2022-10-15T13:58:21;19.40;78.40
71208;DHT22;58938;49.868;8.646;2022-10-15T14:01:12;19.40;78.40
71208;DHT22;58938;49.868;8.646;2022-10-15T14:03:54;19.40;78.50
71208;DHT22;58938;49.868;8.646;2022-10-15T14:11:26;19.40;78.50
71208;DHT22;58938;49.868;8.646;2022-10-15T14:13:54;19.40;78.50
71208;DHT22;58938;49.868;8.646;2022-10-15T14:16:39;19.40;78.60
71208;DHT22;58938;49.868;8.646;2022-10-15T14:21:32;19.30;78.60
71208;DHT22;58938;49.868;8.646;2022-10-15T14:24:19;19.40;78.60
71208;DHT22;58938;49.868;8.646;2022-10-15T14:26:46;19.30;78.70
71208;DHT22;58938;49.868;8.646;2022-10-15T14:29:25;19.40;78.60
71208;DHT22;58938;49.868;8.646;2022-10-15T14:31:52;19.40;78.70
71208;DHT22;58938;49.868;8.646;2022-10-15T14:34:34;19.40;78.60
71208;DHT22;58938;49.868;8.646;2022-10-15T14:37:25;19.40;78.50
71208;DHT22;58938;49.868;8.646;2022-10-15T14:39:48;19.30;78.50
71208;DHT22;58938;49.868;8.646;2022-10-15T14:42:27;19.40;78.50
71208;DHT22;58938;49.868;8.646;2022-10-15T14:44:52;19.30;78.50
71208;DHT22;58938;49.868;8.646;2022-10-15T14:47:23;19.30;78.50
71208;DHT22;58938;49.868;8.646;2022-10-15T14:49:51;19.30;78.50
71208;DHT22;58938;49.868;8.646;2022-10-15T14:52:18;19.30;78.50
71208;DHT22;58938;49.868;8.646;2022-10-15T14:55:01;19.40;78.50
71208;DHT22;58938;49.868;8.646;2022-10-15T14:57:33;19.40;78.50
71208;DHT22;58938;49.868;8.646;2022-10-15T15:00:00;19.40;78.50
71208;DHT22;58938;49.868;8.646;2022-10-15T15:02:27;19.40;78.50
71208;DHT22;58938;49.868;8.646;2022-10-15T15:05:07;19.40;78.50
71208;DHT22;58938;49.868;8.646;2022-10-15T15:07:40;19.40;78.50
71208;DHT22;58938;49.868;8.646;2022-10-15T15:10:07;19.40;78.50
71208;DHT22;58938;49.868;8.646;2022-10-15T15:12:33;19.40;78.60
71208;DHT22;58938;49.868;8.646;2022-10-15T15:14:59;19.40;78.60
71208;DHT22;58938;49.868;8.646;2022-10-15T15:17:27;19.40;78.60
71208;DHT22;58938;49.868;8.646;2022-10-15T15:19:54;19.40;78.50
71208;DHT22;58938;49.868;8.646;2022-10-15T15:22:31;19.40;78.50
71208;DHT22;58938;49.868;8.646;2022-10-15T15:24:59;19.40;78.60
71208;DHT22;58938;49.868;8.646;2022-10-15T15:27:28;19.40;78.50
71208;DHT22;58938;49.868;8.646;2022-10-15T15:29:56;19.40;78.60
71208;DHT22;58938;49.868;8.646;2022-10-15T15:32:24;19.40;78.50
71208;DHT22;58938;49.868;8.646;2022-10-15T15:34:51;19.40;78.60
71208;DHT22;58938;49.868;8.646;2022-10-15T15:37:19;19.40;78.50
71208;DHT22;58938;49.868;8.646;2022-10-15T15:39:46;19.40;78.60
71208;DHT22;58938;49.868;8.646;2022-10-15T15:42:22;19.40;78.50
71208;DHT22;58938;49.868;8.646;2022-10-15T15:44:48;19.40;78.50
71208;DHT22;58938;49.868;8.646;2022-10-15T15:47:14;19.40;78.60
71208;DHT22;58938;49.868;8.646;2022-10-15T15:49:40;19.40;78.50
71208;DHT22;58938;49.868;8.646;2022-10-15T15:52:09;19.40;78.50
71208;DHT22;58938;49.868;8.646;2022-10-15T15:54:38;19.40;78.50
71208;DHT22;58938;49.868;8.646;2022-10-15T15:57:04;19.40;78.50
71208;DHT22;58938;49.868;8.646;2022-10-15T15:59:30;19.40;78.50
71208;DHT22;58938;49.868;8.646;2022-10-15T16:01:55;19.40;78.50
71208;DHT22;58938;49.868;8.646;2022-10-15T16:04:21;19.40;78.50
71208;DHT22;58938;49.868;8.646;2022-10-15T16:06:47;19.40;78.40
71208;DHT22;58938;49.868;8.646;2022-10-15T16:09:17;19.40;78.40
71208;DHT22;58938;49.868;8.646;2022-10-15T16:11:43;19.40;78.40
71208;DHT22;58938;49.868;8.646;2022-10-15T16:14:09;19.40;78.30
71208;DHT22;58938;49.868;8.646;2022-10-15T16:16:35;19.40;78.40
71208;DHT22;58938;49.868;8.646;2022-10-15T16:19:02;19.40;78.30
71208;DHT22;58938;49.868;8.646;2022-10-15T16:21:28;19.40;78.30
71208;DHT22;58938;49.868;8.646;2022-10-15T16:23:53;19.30;78.30
71208;DHT22;58938;49.868;8.646;2022-10-15T16:26:19;19.40;78.30
71208;DHT22;58938;49.868;8.646;2022-10-15T16:28:45;19.30;78.20
71208;DHT22;58938;49.868;8.646;2022-10-15T16:31:17;19.30;78.30
71208;DHT22;58938;49.868;8.646;2022-10-15T16:33:44;19.30;78.20
71208;DHT22;58938;49.868;8.646;2022-10-15T16:36:09;19.30;78.20
71208;DHT22;58938;49.868;8.646;2022-10-15T16:38:38;19.30;78.20
71208;DHT22;58938;49.868;8.646;2022-10-15T16:41:04;19.30;78.20
71208;DHT22;58938;49.868;8.646;2022-10-15T16:43:29;19.30;78.20
71208;DHT22;58938;49.868;8.646;2022-10-15T16:45:56;19.30;78.20
71208;DHT22;58938;49.868;8.646;2022-10-15T16:48:21;19.30;78.20
71208;DHT22;58938;49.868;8.646;2022-10-15T16:50:48;19.30;78.20
71208;DHT22;58938;49.868;8.646;2022-10-15T16:53:22;19.30;78.20
71208;DHT22;58938;49.868;8.646;2022-10-15T16:55:47;19.30;78.20
71208;DHT22;58938;49.868;8.646;2022-10-15T16:58:13;19.30;78.20
71208;DHT22;58938;49.868;8.646;2022-10-15T17:00:39;19.30;78.30
71208;DHT22;58938;49.868;8.646;2022-10-15T17:03:05;19.30;78.30
71208;DHT22;58938;49.868;8.646;2022-10-15T17:05:30;19.30;78.20
71208;DHT22;58938;49.868;8.646;2022-10-15T17:07:57;19.30;78.20
71208;DHT22;58938;49.868;8.646;2022-10-15T17:10:22;19.30;78.20
71208;DHT22;58938;49.868;8.646;2022-10-15T17:12:50;19.30;78.20
71208;DHT22;58938;49.868;8.646;2022-10-15T17:15:16;19.30;78.20
71208;DHT22;58938;49.868;8.646;2022-10-15T17:17:42;19.30;78.20
71208;DHT22;58938;49.868;8.646;2022-10-15T17:20:08;19.30;78.20
71208;DHT22;58938;49.868;8.646;2022-10-15T17:22:34;19.30;78.20
71208;DHT22;58938;49.868;8.646;2022-10-15T17:25:00;19.30;78.20
71208;DHT22;58938;49.868;8.646;2022-10-15T17:27:25;19.30;78.20
71208;DHT22;58938;49.868;8.646;2022-10-15T17:29:51;19.30;78.20
71208;DHT22;58938;49.868;8.646;2022-10-15T17:32:16;19.30;78.20
71208;DHT22;58938;49.868;8.646;2022-10-15T17:34:42;19.30;78.20
71208;DHT22;58938;49.868;8.646;2022-10-15T17:37:07;19.30;78.20
71208;DHT22;58938;49.868;8.646;2022-10-15T17:39:33;19.30;78.10
71208;DHT22;58938;49.868;8.646;2022-10-15T17:41:59;19.30;78.10
71208;DHT22;58938;49.868;8.646;2022-10-15T17:44:24;19.30;78.10
71208;DHT22;58938;49.868;8.646;2022-10-15T17:46:50;19.30;78.10
71208;DHT22;58938;49.868;8.646;2022-10-15T17:49:16;19.30;78.10
71208;DHT22;58938;49.868;8.646;2022-10-15T17:51:43;19.30;78.10